Lower Presto, Idaho
Current Conditions -  °F | °C
As of 6:53 AM on Thursday 27 Nov 2014 (Local Time) from KIDA Reporting Station
Clear Clear  
Wind Chill: 30°   Ceiling: Unl
Heat Index: 34°   Visibility: 10mi
Dew Point: 30°   Wind: 5mph
Humidity: 85%   Direction: NA
Pressure: 30.19"   Gusts: NA
Location:  43.192°N, 111.839°W
Report Text: KIDA 271353Z AUTO VRB04KT 10SM CLR 01/M01 A3019 RMK AO2 SLP232 T00111011
Loading
Personal Weather Stations






























Interactive Weather Map New forecast layout! Learn more

10-Day Weather Forecast

Advertisements
Track Severe Weather on mobile